createdAt,value
2023-01-11T00:00:57.412Z,4.60
2023-01-11T00:03:24.558Z,4.82
2023-01-11T00:05:56.620Z,3.92
2023-01-11T00:08:26.628Z,4.80
2023-01-11T00:10:54.273Z,6.13
2023-01-11T00:13:21.257Z,3.50
2023-01-11T00:15:49.288Z,4.97
2023-01-11T00:18:16.118Z,4.85
2023-01-11T00:20:42.896Z,4.97
2023-01-11T00:23:10.308Z,4.45
2023-01-11T00:25:37.745Z,3.88
2023-01-11T00:28:05.622Z,4.80
2023-01-11T00:30:35.347Z,3.97
2023-01-11T00:33:03.264Z,2.90
2023-01-11T00:35:32.697Z,3.42
2023-01-11T00:37:59.946Z,4.60
2023-01-11T00:40:27.922Z,4.43
2023-01-11T00:43:13.064Z,4.47
2023-01-11T00:45:58.765Z,4.65
2023-01-11T00:48:25.799Z,3.25
2023-01-11T00:50:55.348Z,3.60
2023-01-11T00:53:22.500Z,3.17
2023-01-11T00:55:49.524Z,3.30
2023-01-11T00:58:16.475Z,5.28
2023-01-11T01:00:43.678Z,3.45
2023-01-11T01:03:10.517Z,4.80
2023-01-11T01:05:39.133Z,3.70
2023-01-11T01:08:06.534Z,4.72
2023-01-11T01:10:33.860Z,4.78
2023-01-11T01:13:19.159Z,4.53
2023-01-11T01:15:46.014Z,3.53
2023-01-11T01:18:13.809Z,3.42
2023-01-11T01:20:40.784Z,3.03
2023-01-11T01:23:07.579Z,3.15
2023-01-11T01:25:37.883Z,2.83
2023-01-11T01:28:04.846Z,3.42
2023-01-11T01:30:32.193Z,3.72
2023-01-11T01:32:59.308Z,3.10
2023-01-11T01:35:26.306Z,3.22
2023-01-11T01:37:53.597Z,3.63
2023-01-11T01:40:21.873Z,3.47
2023-01-11T01:42:53.405Z,3.60
2023-01-11T01:45:26.912Z,3.08
2023-01-11T01:47:59.245Z,3.50
2023-01-11T01:53:02.639Z,3.90
2023-01-11T01:55:35.796Z,3.65
2023-01-11T01:58:06.318Z,3.20
2023-01-11T02:00:33.678Z,2.85
2023-01-11T02:03:02.028Z,3.60
2023-01-11T02:05:29.414Z,2.90
2023-01-11T02:07:58.970Z,2.60
2023-01-11T02:10:28.306Z,2.88
2023-01-11T02:13:05.850Z,2.85
2023-01-11T02:15:32.777Z,2.60
2023-01-11T02:17:59.782Z,2.40
2023-01-11T02:20:35.949Z,2.75
2023-01-11T02:23:21.777Z,2.65
2023-01-11T02:26:26.063Z,2.28
2023-01-11T02:29:00.458Z,2.33
2023-01-11T02:31:33.947Z,2.58
2023-01-11T02:34:38.351Z,5.32
2023-01-11T02:37:18.591Z,2.70
2023-01-11T02:39:56.511Z,2.42
2023-01-11T02:42:51.477Z,3.33
2023-01-11T02:45:24.129Z,3.13
2023-01-11T02:47:57.360Z,3.95
2023-01-11T02:50:39.037Z,4.68
2023-01-11T02:53:24.500Z,3.88
2023-01-11T02:55:58.797Z,5.05
2023-01-11T02:58:30.616Z,3.67
2023-01-11T03:00:58.785Z,4.40
2023-01-11T03:03:29.771Z,4.53
2023-01-11T03:06:08.426Z,4.35
2023-01-11T03:08:41.366Z,4.40
2023-01-11T03:11:14.611Z,4.75
2023-01-11T03:13:47.869Z,4.28
2023-01-11T03:16:20.632Z,6.80
2023-01-11T03:18:53.877Z,7.40
2023-01-11T03:21:23.748Z,9.57
2023-01-11T03:24:05.759Z,10.68
2023-01-11T03:27:02.793Z,9.73
2023-01-11T03:29:32.502Z,9.23
2023-01-11T03:32:05.415Z,7.93
2023-01-11T03:34:44.579Z,8.02
2023-01-11T03:37:21.125Z,8.63
2023-01-11T03:40:10.821Z,9.52
2023-01-11T03:43:01.976Z,9.75
2023-01-11T03:45:33.371Z,9.07
2023-01-11T03:48:02.982Z,9.53
2023-01-11T03:50:31.900Z,9.93
2023-01-11T03:53:01.857Z,10.32
2023-01-11T03:55:34.031Z,9.52
2023-01-11T03:58:01.004Z,8.90
2023-01-11T04:00:30.141Z,7.93
2023-01-11T04:02:57.152Z,7.35
2023-01-11T04:05:23.831Z,7.68
2023-01-11T04:07:51.031Z,6.43
2023-01-11T04:10:18.238Z,7.80
2023-01-11T04:12:50.123Z,7.07
2023-01-11T04:15:17.764Z,7.18
2023-01-11T04:17:45.482Z,6.85
2023-01-11T04:20:13.466Z,6.65
2023-01-11T04:22:40.799Z,7.32
2023-01-11T04:25:09.013Z,6.07
2023-01-11T04:27:36.188Z,5.57
2023-01-11T04:30:04.486Z,5.25
2023-01-11T04:32:31.524Z,4.57
2023-01-11T04:34:58.649Z,3.28
2023-01-11T04:37:25.668Z,4.10
2023-01-11T04:39:53.043Z,3.80
2023-01-11T04:42:20.026Z,4.60
2023-01-11T04:44:51.523Z,3.65
2023-01-11T04:47:21.553Z,4.63
2023-01-11T04:49:49.120Z,4.68
2023-01-11T04:52:20.323Z,4.55
2023-01-11T04:54:48.869Z,4.35
2023-01-11T04:57:17.464Z,5.57
2023-01-11T04:59:47.086Z,4.43
2023-01-11T05:02:15.506Z,4.30
2023-01-11T05:04:42.254Z,4.18
2023-01-11T05:07:10.550Z,3.33
2023-01-11T05:09:37.913Z,3.80
2023-01-11T05:12:05.574Z,3.88
2023-01-11T05:14:32.842Z,3.63
2023-01-11T05:17:00.137Z,3.15
2023-01-11T05:19:27.075Z,2.53
2023-01-11T05:21:59.529Z,2.58
2023-01-11T05:24:26.345Z,2.88
2023-01-11T05:26:53.733Z,2.35
2023-01-11T05:29:21.597Z,2.53
2023-01-11T05:31:49.740Z,2.63
2023-01-11T05:34:18.373Z,2.80
2023-01-11T05:36:46.069Z,2.20
2023-01-11T05:39:17.560Z,2.45
2023-01-11T05:41:44.957Z,2.67
2023-01-11T05:44:31.886Z,2.83
2023-01-11T05:47:00.476Z,2.83
2023-01-11T05:49:27.433Z,2.60
2023-01-11T05:51:54.598Z,2.85
2023-01-11T05:54:21.825Z,2.53
2023-01-11T05:56:48.919Z,1.95
2023-01-11T05:59:15.784Z,2.72
2023-01-11T06:01:43.637Z,2.15
2023-01-11T06:04:10.329Z,3.28
2023-01-11T06:06:37.925Z,3.50
2023-01-11T06:09:04.628Z,3.20
2023-01-11T06:11:33.290Z,3.58
2023-01-11T06:13:59.929Z,3.40
2023-01-11T06:16:26.752Z,4.07
2023-01-11T06:18:54.455Z,4.50
2023-01-11T06:21:22.110Z,4.65
2023-01-11T06:23:52.901Z,4.05
2023-01-11T06:26:22.562Z,4.63
2023-01-11T06:28:51.110Z,4.03
2023-01-11T06:31:18.848Z,3.63
2023-01-11T06:33:47.329Z,3.78
2023-01-11T06:36:15.457Z,3.55
2023-01-11T06:38:43.167Z,3.00
2023-01-11T06:41:11.794Z,3.50
2023-01-11T06:43:41.886Z,3.78
2023-01-11T06:46:17.024Z,3.08
2023-01-11T06:48:44.815Z,4.45
2023-01-11T06:51:12.741Z,4.60
2023-01-11T06:53:41.335Z,3.92
2023-01-11T06:56:11.227Z,3.80
2023-01-11T06:58:38.443Z,3.95
2023-01-11T07:01:06.176Z,3.63
2023-01-11T07:03:33.615Z,4.88
2023-01-11T07:06:01.824Z,3.17
2023-01-11T07:08:28.743Z,7.53
2023-01-11T07:10:55.872Z,4.05
2023-01-11T07:13:23.148Z,3.28
2023-01-11T07:15:50.894Z,3.05
2023-01-11T07:18:19.327Z,3.85
2023-01-11T07:20:47.530Z,3.60
2023-01-11T07:23:14.837Z,3.78
2023-01-11T07:25:42.006Z,3.70
2023-01-11T07:28:10.078Z,3.45
2023-01-11T07:30:56.183Z,3.00
2023-01-11T07:33:24.336Z,3.33
2023-01-11T07:35:51.068Z,3.58
2023-01-11T07:38:17.849Z,4.40
2023-01-11T07:40:44.617Z,4.13
2023-01-11T07:43:15.365Z,3.90
2023-01-11T07:45:49.990Z,4.03
2023-01-11T07:48:27.053Z,3.15
2023-01-11T07:50:54.863Z,2.35
2023-01-11T07:53:25.586Z,2.67
2023-01-11T07:55:52.872Z,2.22
2023-01-11T07:58:20.234Z,1.50
2023-01-11T08:00:47.434Z,0.95
2023-01-11T08:03:15.213Z,1.25
2023-01-11T08:05:41.950Z,0.70
2023-01-11T08:08:09.513Z,0.95
2023-01-11T08:10:36.324Z,1.70
2023-01-11T08:13:21.796Z,1.38
2023-01-11T08:15:49.042Z,1.52
2023-01-11T08:18:17.798Z,1.10
2023-01-11T08:20:46.076Z,1.10
2023-01-11T08:23:13.034Z,1.25
2023-01-11T08:25:40.290Z,0.80
2023-01-11T08:28:09.467Z,1.25
2023-01-11T08:30:37.405Z,1.30
2023-01-11T08:33:05.444Z,1.27
2023-01-11T08:35:37.568Z,3.05
2023-01-11T08:38:04.422Z,1.05
2023-01-11T08:40:31.428Z,1.30
2023-01-11T08:42:58.111Z,0.80
2023-01-11T08:45:25.728Z,0.80
2023-01-11T08:47:53.366Z,0.60
2023-01-11T08:50:22.246Z,0.75
2023-01-11T08:52:51.340Z,1.25
2023-01-11T08:55:20.126Z,0.75
2023-01-11T08:57:47.614Z,1.08
2023-01-11T09:00:14.956Z,0.82
2023-01-11T09:02:42.579Z,1.67
2023-01-11T09:05:10.066Z,0.47
2023-01-11T09:07:36.832Z,0.60
2023-01-11T09:10:03.981Z,0.93
2023-01-11T09:12:32.672Z,0.90
2023-01-11T09:14:59.447Z,0.55
2023-01-11T09:17:27.048Z,0.65
2023-01-11T09:19:54.980Z,0.63
2023-01-11T09:22:21.947Z,0.70
2023-01-11T09:24:49.190Z,0.80
2023-01-11T09:27:16.543Z,1.23
2023-01-11T09:29:43.899Z,1.02
2023-01-11T09:32:10.781Z,1.88
2023-01-11T09:34:38.228Z,1.10
2023-01-11T09:37:07.111Z,1.00
2023-01-11T09:39:35.172Z,1.10
2023-01-11T09:42:32.531Z,0.95
2023-01-11T09:45:07.212Z,1.40
2023-01-11T09:47:41.459Z,0.90
2023-01-11T09:50:14.694Z,0.80
2023-01-11T09:52:46.164Z,1.63
2023-01-11T09:55:24.668Z,1.37
2023-01-11T09:58:16.818Z,1.45
2023-01-11T10:00:49.929Z,1.20
2023-01-11T10:03:46.004Z,1.17
2023-01-11T10:06:25.694Z,1.17
2023-01-11T10:18:30.558Z,0.73
2023-01-11T10:18:40.055Z,0.88
2023-01-11T10:20:44.052Z,1.20
2023-01-11T10:23:21.369Z,2.17
2023-01-11T10:25:51.962Z,1.35
2023-01-11T10:28:32.040Z,1.70
2023-01-11T10:30:58.779Z,1.50
2023-01-11T10:34:10.123Z,1.90
2023-01-11T10:37:35.746Z,2.53
2023-01-11T10:40:29.703Z,1.55
2023-01-11T10:43:22.305Z,2.03
2023-01-11T10:45:54.627Z,2.40
2023-01-11T10:51:24.998Z,3.10
2023-01-11T10:53:55.053Z,1.83
2023-01-11T10:56:33.240Z,1.08
2023-01-11T10:59:22.341Z,1.42
2023-01-11T11:02:20.514Z,1.52
2023-01-11T11:04:59.949Z,1.45
2023-01-11T11:07:58.352Z,1.73
2023-01-11T11:10:37.518Z,1.60
2023-01-11T11:13:19.677Z,1.65
2023-01-11T11:16:04.814Z,1.30
2023-01-11T11:18:32.153Z,1.35
2023-01-11T11:21:04.696Z,2.42
2023-01-11T11:23:31.703Z,1.90
2023-01-11T11:26:02.279Z,1.83
2023-01-11T11:28:31.882Z,1.67
2023-01-11T11:31:02.500Z,1.42
2023-01-11T11:33:40.039Z,3.10
2023-01-11T11:36:13.620Z,3.90
2023-01-11T11:38:42.612Z,2.45
2023-01-11T11:41:15.674Z,2.38
2023-01-11T11:43:47.418Z,2.85
2023-01-11T11:46:18.837Z,2.65
2023-01-11T11:49:11.341Z,2.20
2023-01-11T11:51:39.217Z,1.90
2023-01-11T11:54:06.226Z,1.95
2023-01-11T11:56:41.447Z,2.65
2023-01-11T11:59:13.912Z,2.25
2023-01-11T12:01:47.179Z,2.38
2023-01-11T12:04:31.758Z,2.58
2023-01-11T12:07:15.151Z,2.60
2023-01-11T12:09:49.273Z,1.98
2023-01-11T12:12:21.270Z,2.47
2023-01-11T12:15:09.391Z,2.13
2023-01-11T12:17:36.964Z,1.92
2023-01-11T12:20:23.459Z,2.58
2023-01-11T12:22:53.853Z,3.75
2023-01-11T12:25:24.246Z,2.00
2023-01-11T12:28:20.386Z,4.70
2023-01-11T12:30:54.748Z,2.30
2023-01-11T12:33:21.480Z,2.05
2023-01-11T12:36:03.702Z,2.67
2023-01-11T12:38:39.771Z,3.95
2023-01-11T12:41:19.607Z,1.60
2023-01-11T12:44:11.021Z,1.50
2023-01-11T12:46:53.020Z,2.47
2023-01-11T12:49:38.183Z,2.20
2023-01-11T12:52:30.428Z,2.00
2023-01-11T12:55:25.013Z,2.03
2023-01-11T12:58:14.252Z,1.95
2023-01-11T13:00:53.746Z,2.50
2023-01-11T13:03:20.873Z,1.73
2023-01-11T13:06:12.358Z,2.50
2023-01-11T13:08:54.195Z,12.75
2023-01-11T13:11:38.156Z,2.50
2023-01-11T13:14:14.605Z,1.58
2023-01-11T13:17:15.355Z,3.05
2023-01-11T13:19:54.496Z,3.47
2023-01-11T13:22:28.891Z,3.83
2023-01-11T13:24:59.333Z,1.70
2023-01-11T13:27:28.844Z,1.48
2023-01-11T13:29:59.815Z,3.13
2023-01-11T13:32:33.174Z,2.03
2023-01-11T13:35:15.880Z,2.67
2023-01-11T13:38:30.650Z,2.60
2023-01-11T13:41:07.939Z,2.05
2023-01-11T13:43:56.071Z,2.20
2023-01-11T13:46:32.197Z,3.20
2023-01-11T13:49:11.345Z,2.13
2023-01-11T13:51:46.648Z,2.53
2023-01-11T13:54:26.932Z,2.65
2023-01-11T13:57:02.564Z,2.67
2023-01-11T13:59:46.501Z,2.17
2023-01-11T14:02:19.046Z,2.58
2023-01-11T14:05:11.126Z,2.53
2023-01-11T14:07:37.948Z,2.55
2023-01-11T14:10:15.379Z,2.45
2023-01-11T14:13:10.817Z,2.05
2023-01-11T14:15:44.580Z,2.20
2023-01-11T14:18:52.409Z,1.77
2023-01-11T14:21:41.610Z,1.80
2023-01-11T14:24:11.327Z,2.17
2023-01-11T14:27:00.275Z,2.25
2023-01-11T14:30:05.716Z,2.80
2023-01-11T14:32:40.541Z,2.78
2023-01-11T14:35:39.917Z,2.80
2023-01-11T14:38:35.869Z,2.97
2023-01-11T14:41:26.856Z,3.28
2023-01-11T14:44:30.380Z,2.80
2023-01-11T14:47:24.764Z,3.05
2023-01-11T14:49:53.716Z,3.78
2023-01-11T14:52:39.142Z,5.07
2023-01-11T14:55:17.889Z,4.03
2023-01-11T14:58:01.922Z,3.30
2023-01-11T15:00:28.687Z,4.18
2023-01-11T15:03:01.451Z,5.57
2023-01-11T15:05:31.579Z,4.57
2023-01-11T15:08:13.577Z,5.57
2023-01-11T15:11:20.871Z,6.55
2023-01-11T15:13:56.190Z,6.00
2023-01-11T15:17:03.921Z,5.88
2023-01-11T15:19:34.144Z,6.43
2023-01-11T15:22:04.681Z,9.15
2023-01-11T15:24:43.143Z,9.10
2023-01-11T15:27:37.556Z,8.35
2023-01-11T15:30:07.699Z,8.75
2023-01-11T15:32:36.280Z,8.45
2023-01-11T15:35:30.958Z,8.32
2023-01-11T15:38:21.095Z,12.00
2023-01-11T15:40:48.381Z,11.02
2023-01-11T15:43:21.119Z,9.43
2023-01-11T15:46:42.557Z,9.25
2023-01-11T15:49:38.007Z,10.63
2023-01-11T15:52:37.050Z,10.57
2023-01-11T15:55:35.410Z,11.38
2023-01-11T15:58:11.707Z,11.90
2023-01-11T16:00:47.675Z,13.38
2023-01-11T16:03:42.459Z,13.30
2023-01-11T16:06:33.809Z,13.13
2023-01-11T16:09:26.395Z,12.45
2023-01-11T16:11:56.379Z,12.13
2023-01-11T16:14:55.948Z,11.25
2023-01-11T16:17:24.903Z,13.10
2023-01-11T16:19:59.315Z,12.90
2023-01-11T16:22:28.456Z,11.98
2023-01-11T16:25:05.481Z,12.45
2023-01-11T16:27:35.120Z,11.35
2023-01-11T16:30:02.852Z,11.00
2023-01-11T16:32:35.619Z,10.77
2023-01-11T16:35:16.928Z,11.15
2023-01-11T16:37:55.381Z,9.48
2023-01-11T16:40:30.710Z,8.85
2023-01-11T16:43:16.211Z,9.07
2023-01-11T16:45:44.685Z,10.10
2023-01-11T16:48:19.876Z,8.90
2023-01-11T16:51:03.889Z,12.95
2023-01-11T16:53:42.701Z,7.68
2023-01-11T16:56:20.483Z,7.85
2023-01-11T16:59:06.045Z,7.22
2023-01-11T17:01:59.311Z,6.88
2023-01-11T17:04:41.418Z,6.38
2023-01-11T17:07:23.146Z,7.72
2023-01-11T17:09:50.430Z,7.07
2023-01-11T17:12:26.015Z,6.53
2023-01-11T17:15:03.327Z,6.43
2023-01-11T17:17:36.295Z,7.20
2023-01-11T17:20:04.663Z,7.38
2023-01-11T17:22:34.285Z,7.40
2023-01-11T17:25:16.441Z,7.13
2023-01-11T17:27:51.057Z,7.88
2023-01-11T17:30:21.997Z,6.93
2023-01-11T17:32:51.539Z,7.63
2023-01-11T17:35:27.669Z,8.52
2023-01-11T17:37:58.213Z,8.82
2023-01-11T17:40:38.306Z,9.00
2023-01-11T17:43:32.576Z,8.20
2023-01-11T17:46:02.821Z,10.23
2023-01-11T17:48:30.578Z,9.23
2023-01-11T17:51:00.243Z,9.40
2023-01-11T17:53:32.551Z,9.30
2023-01-11T17:58:29.431Z,9.73
2023-01-11T18:01:08.426Z,10.10
2023-01-11T18:03:49.054Z,10.73
2023-01-11T18:06:16.297Z,9.95
2023-01-11T18:08:48.823Z,9.15
2023-01-11T18:13:55.930Z,9.77
2023-01-11T18:16:23.376Z,9.90
2023-01-11T18:18:52.631Z,10.43
2023-01-11T18:21:25.512Z,10.15
2023-01-11T18:24:24.234Z,10.07
2023-01-11T18:27:15.374Z,10.25
2023-01-11T18:29:47.009Z,9.48
2023-01-11T18:32:15.290Z,10.50
2023-01-11T18:34:44.360Z,10.30
2023-01-11T18:37:11.699Z,9.85
2023-01-11T18:39:53.715Z,10.27
2023-01-11T18:42:24.908Z,10.32
2023-01-11T18:44:51.782Z,11.10
2023-01-11T18:47:22.681Z,10.77
2023-01-11T18:49:51.178Z,11.52
2023-01-11T18:52:20.604Z,12.73
2023-01-11T18:54:47.911Z,10.57
2023-01-11T18:57:14.805Z,10.32
2023-01-11T18:59:41.632Z,9.35
2023-01-11T19:02:23.798Z,7.95
2023-01-11T19:04:52.308Z,9.40
2023-01-11T19:07:20.207Z,12.27
2023-01-11T19:09:47.232Z,8.55
2023-01-11T19:12:14.873Z,9.07
2023-01-11T19:14:41.990Z,8.73
2023-01-11T19:17:12.408Z,7.78
2023-01-11T19:19:39.457Z,8.82
2023-01-11T19:22:06.743Z,7.85
2023-01-11T19:24:33.755Z,9.52
2023-01-11T19:27:00.605Z,9.38
2023-01-11T19:29:27.620Z,27.77
2023-01-11T19:31:55.855Z,10.60
2023-01-11T19:34:23.068Z,9.93
2023-01-11T19:36:51.740Z,9.40
2023-01-11T19:39:19.138Z,9.30
2023-01-11T19:41:55.207Z,8.52
2023-01-11T19:44:22.599Z,7.90
2023-01-11T19:46:56.742Z,8.85
2023-01-11T19:49:24.192Z,8.50
2023-01-11T19:51:51.218Z,8.38
2023-01-11T19:54:20.825Z,8.02
2023-01-11T19:56:49.413Z,8.38
2023-01-11T19:59:16.456Z,8.13
2023-01-11T20:01:44.103Z,8.85
2023-01-11T20:04:12.978Z,7.07
2023-01-11T20:06:50.353Z,9.50
2023-01-11T20:09:18.774Z,7.43
2023-01-11T20:11:46.622Z,7.50
2023-01-11T20:14:13.433Z,8.82
2023-01-11T20:16:40.226Z,7.72
2023-01-11T20:19:07.300Z,7.85
2023-01-11T20:21:34.511Z,7.78
2023-01-11T20:24:10.093Z,7.18
2023-01-11T20:26:36.965Z,6.30
2023-01-11T20:29:05.611Z,8.00
2023-01-11T20:31:35.187Z,7.85
2023-01-11T20:34:07.922Z,6.75
2023-01-11T20:36:35.191Z,8.27
2023-01-11T20:39:01.907Z,8.00
2023-01-11T20:41:47.252Z,7.07
2023-01-11T20:44:20.124Z,8.68
2023-01-11T20:46:48.434Z,7.78
2023-01-11T20:49:16.301Z,8.30
2023-01-11T20:51:43.854Z,8.60
2023-01-11T20:54:11.200Z,8.25
2023-01-11T20:56:38.749Z,7.65
2023-01-11T20:59:07.424Z,7.45
2023-01-11T21:01:34.593Z,8.23
2023-01-11T21:04:03.824Z,7.53
2023-01-11T21:06:32.412Z,8.52
2023-01-11T21:09:00.512Z,8.68
2023-01-11T21:11:28.205Z,7.63
2023-01-11T21:13:56.097Z,8.43
2023-01-11T21:16:27.979Z,7.78
2023-01-11T21:19:03.224Z,7.93
2023-01-11T21:21:32.288Z,8.18
2023-01-11T21:24:01.718Z,7.65
2023-01-11T21:26:29.555Z,7.65
2023-01-11T21:28:59.450Z,8.30
2023-01-11T21:31:28.425Z,8.70
2023-01-11T21:33:55.392Z,8.20
2023-01-11T21:36:24.045Z,8.40
2023-01-11T21:38:51.231Z,9.23
2023-01-11T21:41:43.810Z,9.88
2023-01-11T21:46:38.128Z,10.13
2023-01-11T21:49:05.300Z,10.07
2023-01-11T21:51:32.307Z,10.23
2023-01-11T21:54:22.613Z,10.27
2023-01-11T21:56:52.480Z,9.15
2023-01-11T21:59:20.389Z,8.52
2023-01-11T22:01:49.257Z,9.40
2023-01-11T22:04:18.052Z,9.63
2023-01-11T22:06:56.649Z,10.07
2023-01-11T22:09:27.421Z,9.23
2023-01-11T22:11:55.445Z,10.00
2023-01-11T22:14:22.136Z,9.73
2023-01-11T22:16:48.820Z,9.13
2023-01-11T22:19:15.850Z,9.80
2023-01-11T22:21:42.559Z,10.00
2023-01-11T22:24:11.516Z,8.63
2023-01-11T22:26:39.155Z,9.27
2023-01-11T22:29:16.320Z,8.75
2023-01-11T22:31:46.981Z,8.93
2023-01-11T22:34:14.755Z,9.80
2023-01-11T22:36:42.214Z,10.70
2023-01-11T22:39:09.146Z,8.65
2023-01-11T22:41:35.995Z,8.50
2023-01-11T22:44:03.018Z,9.13
2023-01-11T22:46:29.916Z,9.38
2023-01-11T22:48:56.471Z,9.38
2023-01-11T22:51:25.325Z,9.35
2023-01-11T22:53:54.130Z,9.27
2023-01-11T22:56:23.746Z,9.35
2023-01-11T22:58:51.190Z,9.23
2023-01-11T23:01:20.820Z,9.32
2023-01-11T23:03:47.875Z,8.38
2023-01-11T23:06:20.503Z,9.20
2023-01-11T23:08:47.552Z,8.57
2023-01-11T23:11:38.322Z,7.78
2023-01-11T23:14:06.737Z,7.53
2023-01-11T23:16:33.660Z,7.40
2023-01-11T23:19:00.604Z,7.80
2023-01-11T23:21:27.813Z,7.78
2023-01-11T23:23:54.551Z,6.97
2023-01-11T23:26:21.785Z,5.88
2023-01-11T23:28:50.681Z,6.65
2023-01-11T23:31:20.567Z,6.53
2023-01-11T23:33:51.942Z,6.50
2023-01-11T23:36:20.701Z,6.77
2023-01-11T23:38:48.306Z,5.93
2023-01-11T23:41:35.663Z,7.18
2023-01-11T23:44:05.245Z,6.30
2023-01-11T23:46:50.900Z,7.00
2023-01-11T23:49:17.983Z,6.90
2023-01-11T23:51:45.249Z,7.00
2023-01-11T23:54:12.231Z,6.78
2023-01-11T23:56:39.585Z,7.25
2023-01-11T23:59:07.447Z,5.93
